Latest Weather Observations for Cobar Airport

IDN60801

Issued at 11:32 am EST Wednesday 1 July 2015 (issued every 30 minutes, with the page automatically refreshed every 10 minutes)

About weather observations | Map of weather stations | Latest weather observations for NSW | Other Formats
Station Details ID: 048237 Name: COBAR AIRPORT AWS Lat: -31.54 Lon: 145.80 Height: 218.0 m
Data from the previous 72 hours. | See also: Recent months for locations in New South Wales
Date/Time
EST
Temp
°C
App
Temp
°C
Dew
Point
Rel
Hum
%
Delta-T
°C
Wind Press
QNH
hPa
Press
MSL
hPa
Rain
since 9 am
mm
Dir
 
Spd
km/h
Gust
km/h
Spd
kts
Gust
kts
01/11:30am 10.2 6.9 2.6 59 3.3 S 9 15 5 8 1029.5 1029.8 0.0
01/11:00am 10.1 7.4 3.8 65 2.8 SSW 7 13 4 7 1029.8 1030.1 0.0
01/10:30am 9.5 6.5 4.3 70 2.3 SSE 9 15 5 8 1029.9 1030.2 0.0
01/10:00am 8.2 4.9 4.4 77 1.7 S 11 15 6 8 1029.9 1030.2 0.0
01/09:30am 6.9 4.2 5.4 90 0.7 SSE 9 11 5 6 1030.1 1030.3 0.0
01/08:30am 4.8 2.3 4.7 99 0.0 SSE 7 9 4 5 1029.6 1029.8 0.0
01/08:00am 3.4 0.6 3.3 99 0.0 SSE 7 9 4 5 1029.4 1029.6 0.0
01/07:57am 3.3 0.5 3.2 99 0.0 SSE 7 9 4 5 1029.3 1029.5 0.0
01/07:55am 3.2 0.4 3.1 99 0.0 SSE 7 9 4 5 1029.3 1029.5 0.0
01/07:54am 3.1 0.3 3.0 99 0.0 SSE 7 9 4 5 1029.1 - 0.0
01/07:35am 2.2 -0.6 1.9 98 0.1 SSE 6 7 3 4 1029.2 1029.4 0.0
01/07:30am 2.3 -0.5 2.0 98 0.1 SSE 6 7 3 4 1029.2 1029.4 0.0
01/07:15am 2.7 -0.2 2.6 99 0.0 SSE 7 9 4 5 1028.9 1029.2 0.0
01/07:14am 2.7 -0.2 2.6 99 0.0 SSE 7 9 4 5 1028.9 - 0.0
01/07:12am 2.8 -0.1 2.7 99 0.0 SSE 7 9 4 5 1028.8 1029.1 0.0
01/07:05am 3.1 0.3 3.0 99 0.0 SSE 7 9 4 5 1028.7 1029.0 0.0
01/07:00am 3.0 0.1 2.7 98 0.1 SSE 7 7 4 4 1028.6 1028.9 0.0
01/06:30am 3.5 0.7 3.2 98 0.1 SSE 7 9 4 5 1028.2 1028.4 0.0
01/06:00am 3.6 0.4 3.2 97 0.2 SSE 9 9 5 5 1028.0 1028.2 0.0
01/05:30am 3.0 1.4 2.4 96 0.2 CALM 0 0 0 0 1027.8 1028.0 0.0
01/05:00am 3.9 2.5 3.3 96 0.2 CALM 0 0 0 0 1027.7 1027.9 0.0
01/04:30am 4.5 3.2 3.9 96 0.3 CALM 0 0 0 0 1027.7 1027.9 0.0
01/04:00am 5.2 4.0 4.8 97 0.2 CALM 0 0 0 0 1027.8 1028.0 0.0
01/03:30am 5.7 3.5 5.3 97 0.2 S 6 7 3 4 1027.7 1027.9 0.0
01/03:00am 6.0 3.8 5.4 96 0.3 S 6 7 3 4 1027.8 1028.0 0.0
01/02:30am 6.6 4.4 6.0 96 0.3 SSE 7 9 4 5 1027.9 1028.1 0.0
01/02:00am 6.9 6.0 6.0 94 0.4 CALM 0 0 0 0 1028.0 1028.2 0.0
01/01:30am 6.9 4.8 5.7 92 0.5 SSE 6 7 3 4 1028.1 1028.3 0.0
01/01:00am 7.6 5.0 6.2 91 0.6 SSE 9 11 5 6 1028.2 1028.4 0.0
01/12:30am 7.7 4.8 6.3 91 0.6 S 11 13 6 7 1028.4 1028.6 0.0
01/12:00am 7.4 4.7 5.5 88 0.9 S 9 11 5 6 1028.5 1028.7 0.0
 
Date/Time
EST
Temp
°C
App
Temp
°C
Dew
Point
Rel
Hum
%
Delta-T
°C
Wind Press
QNH
hPa
Press
MSL
hPa
Rain
since 9 am
mm
Dir
 
Spd
km/h
Gust
km/h
Spd
kts
Gust
kts
30/11:30pm 8.1 5.5 5.9 86 1.0 S 9 13 5 7 1028.2 1028.4 0.0
30/11:00pm 8.4 5.4 6.2 86 1.0 S 11 13 6 7 1028.1 1028.3 0.0
30/10:30pm 8.9 6.0 6.5 85 1.1 S 11 15 6 8 1028.1 1028.3 0.0
30/10:00pm 9.5 6.6 6.4 81 1.4 SSW 11 13 6 7 1028.1 1028.3 0.0
30/09:30pm 10.0 7.1 6.7 80 1.6 S 11 15 6 8 1027.9 1028.1 0.0
30/09:00pm 10.7 7.8 6.6 76 1.9 SSW 11 17 6 9 1028.0 1028.2 0.0
30/08:30pm 10.9 8.0 6.6 75 2.1 S 11 15 6 8 1027.9 1028.1 0.0
30/08:00pm 11.5 8.6 6.6 72 2.3 SSW 11 17 6 9 1027.9 1028.1 0.0
30/07:30pm 12.0 8.8 6.7 70 2.6 S 13 20 7 11 1027.8 1028.0 0.0
30/07:00pm 12.1 9.2 6.6 69 2.6 SSW 11 15 6 8 1027.6 1027.8 0.0
30/06:30pm 12.5 9.3 6.8 68 2.8 S 13 17 7 9 1027.4 1027.6 0.0
30/06:00pm 13.0 9.9 7.2 68 2.8 S 13 15 7 8 1027.2 1027.4 0.0
30/05:30pm 13.6 10.4 6.7 63 3.4 S 13 17 7 9 1026.9 1027.1 0.0
30/05:00pm 14.4 11.1 6.5 59 3.8 S 13 17 7 9 1027.0 1027.2 0.0
30/04:30pm 14.8 10.8 6.6 58 4.0 S 17 19 9 10 1026.6 1026.8 0.0
30/04:00pm 15.3 11.6 6.1 54 4.5 SSW 15 20 8 11 1026.5 1026.7 0.0
30/03:30pm 15.5 11.5 6.8 56 4.3 S 17 22 9 12 1026.2 1026.4 0.0
30/03:00pm 15.8 12.2 6.8 55 4.4 S 15 20 8 11 1026.1 1026.3 0.0
30/02:30pm 15.4 11.7 6.4 55 4.4 SSW 15 20 8 11 1026.1 1026.3 0.0
30/02:00pm 15.4 12.2 6.7 56 4.3 SSW 13 19 7 10 1026.4 1026.6 0.0
30/01:30pm 15.5 11.3 7.5 59 4.0 SW 19 24 10 13 1026.5 1026.7 0.0
30/01:00pm 15.5 12.7 6.8 56 4.3 SSW 11 17 6 9 1026.8 1027.0 0.0
30/12:30pm 15.1 11.9 6.9 58 4.1 S 13 17 7 9 1027.1 1027.3 0.0
30/12:00pm 14.7 12.0 7.3 61 3.7 S 11 17 6 9 1027.6 1027.8 0.0
30/11:30am 14.1 10.2 5.2 55 4.2 SSE 15 20 8 11 1027.8 1028.0 0.0
30/11:00am 13.9 10.3 6.7 62 3.5 S 15 19 8 10 1028.5 1028.7 0.0
30/10:30am 12.0 8.8 6.9 71 2.5 SSE 13 17 7 9 1028.8 1029.1 0.0
30/10:00am 11.3 8.8 6.4 72 2.3 SSE 9 13 5 7 1029.0 1029.3 0.0
30/09:30am 10.6 8.1 6.7 77 1.9 S 9 15 5 8 1029.0 1029.3 0.0
30/09:00am 9.3 6.9 7.1 86 1.0 SSE 9 17 5 9 1028.7 1029.0 0.0
30/08:30am 8.2 6.2 6.3 88 0.9 E 6 7 3 4 1028.6 1028.9 0.0
30/08:00am 7.5 4.1 6.0 90 0.7 SSE 13 17 7 9 1028.4 1028.6 0.0
30/07:30am 7.5 6.3 6.3 92 0.6 SE 2 7 1 4 1028.3 1028.5 0.0
30/07:00am 7.6 5.1 6.7 94 0.4 S 9 13 5 7 1028.0 1028.2 0.0
30/06:30am 7.6 5.2 7.0 96 0.3 S 9 11 5 6 1027.8 1028.0 0.0
30/06:00am 7.8 7.1 7.1 95 0.3 CALM 0 0 0 0 1027.6 1027.8 0.0
30/05:30am 7.8 6.8 7.2 96 0.3 SE 2 7 1 4 1027.4 1027.6 0.0
30/05:00am 7.8 7.1 7.1 95 0.3 CALM 0 0 0 0 1027.2 1027.4 0.0
30/04:30am 7.8 7.1 6.9 94 0.4 CALM 0 0 0 0 1027.5 1027.7 0.0
30/04:00am 8.0 7.3 7.1 94 0.4 CALM 0 6 0 3 1027.4 1027.6 0.0
30/03:30am 7.8 6.6 6.6 92 0.6 SE 2 7 1 4 1027.7 1027.9 0.0
30/03:00am 8.1 6.0 6.7 91 0.6 SSE 7 7 4 4 1027.8 1028.0 0.0
30/02:30am 8.7 6.7 7.2 90 0.7 SSE 7 11 4 6 1027.9 1028.1 0.0
30/02:00am 8.7 6.9 7.3 91 0.7 SSE 6 7 3 4 1027.9 1028.1 0.0
30/01:30am 9.0 8.4 7.6 91 0.7 CALM 0 0 0 0 1028.2 1028.4 0.0
30/01:00am 9.0 8.6 8.1 94 0.4 CALM 0 0 0 0 1028.2 1028.4 0.0
30/12:30am 8.9 8.4 7.7 92 0.6 CALM 0 0 0 0 1028.3 1028.5 0.0
30/12:00am 9.3 8.8 7.7 90 0.8 CALM 0 0 0 0 1028.5 1028.7 0.0
 
Date/Time
EST
Temp
°C
App
Temp
°C
Dew
Point
Rel
Hum
%
Delta-T
°C
Wind Press
QNH
hPa
Press
MSL
hPa
Rain
since 9 am
mm
Dir
 
Spd
km/h
Gust
km/h
Spd
kts
Gust
kts
29/11:30pm 9.5 9.0 7.8 89 0.8 CALM 0 0 0 0 1028.6 1028.9 0.0
29/11:00pm 9.6 9.1 7.7 88 0.9 CALM 0 0 0 0 1028.8 1029.1 0.0
29/10:30pm 10.1 8.3 7.2 82 1.4 ENE 6 7 3 4 1028.8 1029.1 0.0
29/10:00pm 9.8 9.3 7.7 87 1.0 CALM 0 7 0 4 1029.0 1029.3 0.0
29/09:30pm 9.9 9.4 7.7 86 1.1 CALM 0 0 0 0 1029.3 1029.5 0.0
29/09:00pm 10.4 8.6 7.8 84 1.3 SSE 7 9 4 5 1029.4 1029.6 0.0
29/08:30pm 9.6 8.8 8.2 91 0.7 SSE 2 7 1 4 1029.7 1029.9 0.0
29/08:00pm 9.4 8.5 7.8 90 0.8 SSE 2 7 1 4 1029.7 1029.9 0.0
29/07:30pm 9.4 8.9 7.8 90 0.8 CALM 0 0 0 0 1029.8 1030.0 0.0
29/07:00pm 9.1 8.5 7.4 89 0.8 CALM 0 0 0 0 1029.8 1030.0 0.0
29/06:30pm 9.9 9.3 7.3 84 1.2 CALM 0 0 0 0 1029.6 1029.8 0.0
29/06:00pm 11.5 9.7 7.0 74 2.2 N 6 7 3 4 1029.5 1029.7 0.0
29/05:30pm 13.3 12.2 7.1 66 3.0 SSW 2 6 1 3 1029.2 1029.4 0.0
29/05:00pm 14.1 11.6 6.5 60 3.7 S 9 15 5 8 1028.8 1029.1 0.0
29/04:30pm 14.8 11.8 5.9 55 4.3 SSW 11 15 6 8 1028.8 1029.1 0.0
29/04:00pm 15.0 12.3 5.8 54 4.4 S 9 13 5 7 1028.8 1029.1 0.0
29/03:30pm 15.2 13.0 5.4 52 4.7 SSW 6 11 3 6 1028.8 1029.1 0.0
29/03:00pm 15.3 13.1 5.2 51 4.8 S 6 11 3 6 1028.8 1029.1 0.0
29/02:30pm 15.6 13.4 6.3 54 4.6 SSW 7 11 4 6 1029.0 1029.3 0.0
29/02:00pm 14.9 12.6 5.7 54 4.4 SW 7 13 4 7 1029.4 1029.6 0.0
29/01:30pm 14.9 13.0 5.1 52 4.7 WNW 4 9 2 5 1029.7 1029.9 0.0
29/01:00pm 14.2 12.4 5.6 56 4.1 S 4 7 2 4 1029.9 1030.1 0.0
29/12:30pm 13.3 11.5 5.5 59 3.7 W 4 7 2 4 1030.3 1030.5 0.0
29/12:00pm 12.6 11.5 6.9 68 2.7 WSW 2 6 1 3 1030.9 1031.1 0.0
29/11:30am 11.4 9.4 6.3 71 2.4 SSW 6 9 3 5 1031.1 1031.3 0.0
29/11:00am 10.6 8.4 6.4 75 2.0 SSE 7 13 4 7 1031.4 1031.6 0.0
29/10:30am 9.8 7.2 6.3 79 1.6 ESE 9 13 5 7 1031.6 1031.8 0.0
29/10:00am 8.4 6.2 6.4 87 0.9 E 7 11 4 6 1032.0 1032.2 0.0
29/09:30am 7.5 5.6 7.4 99 0.0 E 7 9 4 5 1032.1 1032.3 0.0
29/09:00am 5.6 2.9 5.5 99 0.0 ESE 9 13 5 7 1032.1 1032.3 0.2
29/08:30am 3.2 1.7 3.1 99 0.0 CALM 0 6 0 3 1032.2 1032.4 0.2
29/08:00am 2.3 0.7 2.2 99 0.0 CALM 0 0 0 0 1032.3 1032.5 0.2
29/07:30am 1.5 -0.3 1.4 99 0.0 CALM 0 0 0 0 1032.1 1032.3 0.2
29/07:00am 1.7 -0.8 1.6 99 0.0 SE 4 7 2 4 1031.6 1031.8 0.2
29/06:56am 1.8 -0.3 1.7 99 0.0 SE 2 7 1 4 1031.6 1031.8 0.2
29/06:55am 1.9 -0.2 1.8 99 0.0 SE 2 6 1 3 1031.6 - 0.2
29/06:30am 2.1 -0.3 2.0 99 0.0 SE 4 7 2 4 1031.6 1031.8 0.0
29/06:23am 2.3 -0.1 2.2 99 0.0 SE 4 6 2 3 1031.6 1031.8 0.0
29/06:00am 2.0 -0.4 1.9 99 0.0 SE 4 6 2 3 1031.5 1031.7 0.0
29/05:51am 2.0 -0.8 1.9 99 0.0 SE 6 7 3 4 1031.4 1031.6 0.0
29/05:47am 2.1 0.0 2.0 99 0.0 SE 2 7 1 4 1031.4 1031.6 0.0
29/05:46am 2.1 0.0 2.0 99 0.0 SE 2 7 1 4 1031.3 - 0.0
29/05:39am 2.3 0.7 2.2 99 0.0 CALM 0 0 0 0 1031.4 1031.6 0.0
29/05:30am 2.3 0.7 2.2 99 0.0 CALM 0 0 0 0 1031.4 1031.6 0.0
29/05:21am 2.6 1.0 2.5 99 0.0 CALM 0 0 0 0 1031.3 1031.5 0.0
29/05:20am 2.7 1.1 2.6 99 0.0 CALM 0 0 0 0 1031.3 - 0.0
29/05:16am 2.8 1.2 2.7 99 0.0 CALM 0 0 0 0 1031.3 1031.5 0.0
29/05:14am 2.8 1.2 2.7 99 0.0 CALM 0 0 0 0 1031.3 1031.5 0.0
29/05:00am 3.0 1.5 2.9 99 0.0 CALM 0 0 0 0 1031.4 1031.6 0.0
29/04:30am 3.8 1.1 3.7 99 0.0 SE 7 9 4 5 1031.4 1031.6 0.0
29/04:25am 4.0 1.3 3.9 99 0.0 SE 7 9 4 5 1031.4 1031.6 0.0
29/04:24am 4.0 1.3 3.9 99 0.0 SE 7 9 4 5 1031.4 - 0.0
29/04:20am 4.0 1.3 3.9 99 0.0 SE 7 9 4 5 1031.4 1031.6 0.0
29/04:16am 4.0 1.3 3.9 99 0.0 SE 7 9 4 5 1031.4 1031.6 0.0
29/04:00am 3.9 1.4 3.8 99 0.0 ESE 6 7 3 4 1031.5 1031.7 0.0
29/03:30am 4.6 3.4 4.5 99 0.0 CALM 0 0 0 0 1031.7 1031.9 0.0
29/03:03am 5.7 4.7 5.6 99 0.0 CALM 0 0 0 0 1031.7 1031.9 0.0
29/03:02am 5.8 4.8 5.7 99 0.0 CALM 0 0 0 0 1031.7 - 0.0
29/03:00am 5.8 4.8 5.7 99 0.0 CALM 0 0 0 0 1031.7 1031.9 0.0
29/02:30am 6.2 4.0 6.1 99 0.0 SE 7 9 4 5 1031.8 1032.0 0.0
29/02:00am 6.2 4.0 6.1 99 0.0 SSE 7 9 4 5 1032.0 1032.2 0.0
29/01:30am 6.1 3.9 6.0 99 0.0 SE 7 9 4 5 1032.0 1032.2 0.0
29/01:00am 5.9 3.6 5.8 99 0.0 SE 7 9 4 5 1032.2 1032.4 0.0
29/12:35am 5.8 3.5 5.7 99 0.0 SSE 7 9 4 5 1032.2 1032.4 0.0
29/12:30am 5.8 3.5 5.7 99 0.0 SSE 7 9 4 5 1032.2 1032.4 0.0
29/12:20am 5.8 3.5 5.7 99 0.0 SE 7 11 4 6 1032.2 1032.4 0.0
29/12:00am 6.0 3.4 5.9 99 0.0 SSE 9 11 5 6 1032.4 1032.6 0.0
 
Date/Time
EST
Temp
°C
App
Temp
°C
Dew
Point
Rel
Hum
%
Delta-T
°C
Wind Press
QNH
hPa
Press
MSL
hPa
Rain
since 9 am
mm
Dir
 
Spd
km/h
Gust
km/h
Spd
kts
Gust
kts
28/11:30pm 6.4 4.2 6.3 99 0.0 SE 7 9 4 5 1032.6 1032.9 0.0
28/11:00pm 6.2 4.2 6.1 99 0.0 SE 6 7 3 4 1032.7 1033.0 0.0
28/10:30pm 6.0 3.7 5.9 99 0.0 SSE 7 13 4 7 1032.8 1033.1 0.0
28/10:00pm 6.1 4.0 6.0 99 0.0 SE 6 7 3 4 1032.7 1033.0 0.0
28/09:30pm 6.5 5.3 6.4 99 0.0 SW 2 7 1 4 1032.7 1033.0 0.0
28/09:00pm 6.8 4.9 6.7 99 0.0 SSW 6 7 3 4 1032.7 1033.0 0.0
28/08:30pm 7.2 5.4 7.1 99 0.0 WSW 6 7 3 4 1032.6 1032.9 0.0
28/08:00pm 7.1 4.7 7.0 99 0.0 SW 9 13 5 7 1032.6 1032.9 0.0
28/07:30pm 7.0 5.1 6.9 99 0.0 WSW 6 7 3 4 1032.3 1032.5 0.0
28/07:20pm 7.0 5.0 6.9 99 0.0 WSW 7 9 4 5 1032.2 1032.4 0.0
28/07:17pm 6.9 4.8 6.6 98 0.1 WSW 7 9 4 5 1032.2 1032.4 0.0
28/07:04pm 6.3 5.0 5.9 97 0.2 W 2 9 1 5 1032.2 1032.4 0.0
28/07:03pm 6.2 5.2 5.8 97 0.2 CALM 0 7 0 4 1032.2 - 0.0
28/07:00pm 6.0 5.0 5.6 97 0.2 CALM 0 0 0 0 1032.2 1032.4 0.0
28/06:30pm 6.7 5.0 6.0 95 0.3 WNW 4 6 2 3 1032.0 1032.2 0.0
28/06:00pm 7.4 5.5 6.5 94 0.4 N 6 9 3 5 1031.5 1031.7 0.0
28/05:45pm 8.2 7.5 7.1 93 0.5 CALM 0 0 0 0 1031.5 1031.7 0.0
28/05:44pm 8.2 7.5 7.1 93 0.5 CALM 0 0 0 0 1031.4 - 0.0
28/05:30pm 8.7 8.1 7.6 93 0.5 CALM 0 0 0 0 1031.4 1031.6 0.0
28/05:00pm 9.1 7.5 7.9 92 0.6 E 6 7 3 4 1031.6 1031.8 0.0
28/04:30pm 9.1 7.3 8.0 93 0.5 SSE 7 11 4 6 1031.5 1031.7 0.0
28/04:00pm 9.2 6.7 8.3 94 0.4 SSE 11 17 6 9 1031.5 1031.7 0.0
28/03:30pm 8.9 7.1 8.0 94 0.4 SE 7 15 4 8 1031.5 1031.7 0.0
28/03:00pm 9.4 7.4 8.6 95 0.4 S 9 13 5 7 1031.6 1031.8 0.0
28/02:30pm 8.9 6.8 8.3 96 0.3 SE 9 13 5 7 1031.7 1031.9 0.0
28/02:00pm 8.8 7.2 8.7 99 0.0 SSW 7 11 4 6 1031.9 1032.1 0.0
28/01:30pm 8.6 7.1 8.5 99 0.0 SSE 6 11 3 6 1032.2 1032.4 0.0
28/01:00pm 7.8 5.6 7.7 99 0.0 E 9 13 5 7 1032.6 1032.9 0.0
28/12:30pm 7.6 5.3 7.5 99 0.0 SSE 9 15 5 8 1033.0 1033.3 0.0
28/12:00pm 7.3 4.9 7.2 99 0.0 E 9 13 5 7 1033.3 1033.6 0.0
28/11:57am 7.1 4.7 7.0 99 0.0 E 9 13 5 7 1033.4 1033.7 0.0

Other Formats:

Comma delimited format used in spreadsheet applications
http://www.bom.gov.au/fwo/IDN60801/IDN60801.94710.axf

JavaScript Object Notation format (JSON) in row-major order
http://www.bom.gov.au/fwo/IDN60801/IDN60801.94710.json